createdAt,value
2022-09-06T00:01:10.817Z,20.14
2022-09-06T00:03:38.518Z,20.13
2022-09-06T00:06:10.417Z,20.05
2022-09-06T00:08:38.366Z,20.11
2022-09-06T00:11:07.629Z,20.12
2022-09-06T00:13:35.784Z,20.16
2022-09-06T00:16:08.310Z,20.12
2022-09-06T00:18:36.375Z,20.14
2022-09-06T00:21:04.188Z,20.14
2022-09-06T00:23:32.034Z,20.15
2022-09-06T00:26:04.070Z,20.11
2022-09-06T00:28:33.231Z,20.13
2022-09-06T00:31:09.109Z,20.06
2022-09-06T00:33:36.786Z,19.94
2022-09-06T00:36:04.874Z,19.96
2022-09-06T00:38:32.529Z,19.90
2022-09-06T00:41:00.225Z,19.76
2022-09-06T00:43:28.243Z,19.57
2022-09-06T00:45:57.431Z,19.56
2022-09-06T00:48:25.541Z,19.57
2022-09-06T00:50:56.195Z,19.55
2022-09-06T00:53:25.445Z,19.50
2022-09-06T00:55:53.682Z,19.50
2022-09-06T00:58:21.762Z,19.52
2022-09-06T01:00:49.427Z,19.52
2022-09-06T01:03:19.409Z,19.38
2022-09-06T01:05:56.106Z,19.65
2022-09-06T01:08:31.820Z,19.68
2022-09-06T01:11:25.220Z,19.74
2022-09-06T01:14:04.730Z,19.74
2022-09-06T01:16:40.244Z,19.43
2022-09-06T01:19:29.983Z,19.27
2022-09-06T01:22:10.202Z,19.17
2022-09-06T01:24:59.863Z,19.06
2022-09-06T01:27:54.900Z,18.91
2022-09-06T01:30:23.031Z,18.92
2022-09-06T01:32:57.474Z,18.88
2022-09-06T01:35:32.819Z,18.63
2022-09-06T01:38:01.121Z,18.53
2022-09-06T01:40:29.131Z,18.61
2022-09-06T01:42:59.309Z,18.58
2022-09-06T01:45:32.535Z,18.34
2022-09-06T01:48:10.424Z,18.41
2022-09-06T01:50:51.397Z,18.19
2022-09-06T01:53:34.084Z,18.21
2022-09-06T01:56:08.527Z,18.27
2022-09-06T01:59:12.745Z,18.52
2022-09-06T02:01:48.654Z,18.62
2022-09-06T02:04:21.757Z,18.69
2022-09-06T02:06:54.814Z,18.81
2022-09-06T02:09:26.717Z,18.93
2022-09-06T02:11:58.883Z,18.83
2022-09-06T02:14:34.385Z,18.92
2022-09-06T02:17:03.466Z,18.96
2022-09-06T02:19:37.545Z,19.00
2022-09-06T02:22:08.849Z,19.04
2022-09-06T02:24:40.659Z,19.08
2022-09-06T02:27:08.936Z,19.04
2022-09-06T02:29:37.903Z,19.07
2022-09-06T02:32:14.368Z,19.10
2022-09-06T02:34:43.152Z,19.20
2022-09-06T02:37:12.997Z,19.24
2022-09-06T02:39:40.949Z,19.25
2022-09-06T02:42:10.258Z,19.15
2022-09-06T02:44:39.172Z,19.26
2022-09-06T02:47:06.885Z,19.24
2022-09-06T02:49:34.526Z,19.26
2022-09-06T02:52:02.062Z,19.18
2022-09-06T02:54:29.646Z,19.24
2022-09-06T02:56:57.457Z,19.22
2022-09-06T02:59:25.019Z,19.21
2022-09-06T03:01:53.935Z,19.18
2022-09-06T03:04:21.457Z,19.15
2022-09-06T03:06:49.007Z,19.14
2022-09-06T03:09:16.550Z,19.13
2022-09-06T03:11:44.370Z,19.17
2022-09-06T03:14:11.881Z,19.20
2022-09-06T03:16:39.486Z,19.16
2022-09-06T03:19:08.422Z,19.17
2022-09-06T03:21:35.963Z,19.12
2022-09-06T03:24:04.044Z,19.12
2022-09-06T03:26:31.589Z,19.11
2022-09-06T03:28:59.118Z,19.08
2022-09-06T03:31:26.631Z,19.06
2022-09-06T03:33:54.140Z,19.04
2022-09-06T03:36:23.021Z,18.80
2022-09-06T03:38:51.107Z,18.93
2022-09-06T03:41:18.641Z,18.90
2022-09-06T03:43:46.211Z,18.87
2022-09-06T03:46:13.818Z,18.82
2022-09-06T03:48:41.421Z,18.79
2022-09-06T03:51:08.968Z,18.80
2022-09-06T03:53:37.977Z,18.79
2022-09-06T03:56:05.716Z,18.75
2022-09-06T03:58:33.653Z,18.73
2022-09-06T04:01:03.544Z,18.67
2022-09-06T04:03:31.335Z,18.68
2022-09-06T04:05:58.971Z,18.58
2022-09-06T04:08:27.059Z,18.62
2022-09-06T04:10:56.831Z,18.60
2022-09-06T04:13:25.837Z,18.67
2022-09-06T04:15:53.446Z,18.52
2022-09-06T04:18:21.774Z,18.46
2022-09-06T04:20:50.563Z,18.20
2022-09-06T04:23:18.728Z,18.16
2022-09-06T04:25:48.411Z,18.18
2022-09-06T04:28:18.649Z,18.17
2022-09-06T04:30:46.720Z,18.17
2022-09-06T04:33:14.254Z,18.25
2022-09-06T04:35:41.781Z,18.30
2022-09-06T04:38:09.281Z,18.36
2022-09-06T04:40:36.844Z,18.41
2022-09-06T04:43:04.348Z,18.38
2022-09-06T04:45:33.260Z,18.29
2022-09-06T04:48:00.854Z,18.35
2022-09-06T04:50:28.415Z,18.39
2022-09-06T04:52:56.095Z,18.33
2022-09-06T04:55:23.613Z,18.32
2022-09-06T04:57:51.444Z,18.34
2022-09-06T05:00:19.232Z,18.36
2022-09-06T05:02:48.489Z,18.33
2022-09-06T05:05:16.318Z,18.34
2022-09-06T05:07:43.878Z,18.32
2022-09-06T05:10:11.611Z,18.24
2022-09-06T05:12:44.039Z,18.16
2022-09-06T05:15:12.264Z,18.26
2022-09-06T05:17:39.979Z,18.25
2022-09-06T05:20:10.922Z,18.38
2022-09-06T05:22:38.576Z,18.35
2022-09-06T05:25:06.939Z,18.36
2022-09-06T05:27:34.457Z,18.35
2022-09-06T05:30:03.378Z,18.37
2022-09-06T05:32:30.931Z,18.39
2022-09-06T05:34:58.567Z,18.39
2022-09-06T05:37:27.502Z,18.44
2022-09-06T05:39:55.118Z,18.46
2022-09-06T05:42:22.676Z,18.51
2022-09-06T05:44:50.474Z,18.51
2022-09-06T05:47:18.442Z,18.21
2022-09-06T05:49:46.197Z,18.06
2022-09-06T05:52:13.725Z,18.22
2022-09-06T05:54:42.605Z,18.33
2022-09-06T05:57:10.134Z,18.35
2022-09-06T05:59:37.751Z,18.44
2022-09-06T06:02:07.485Z,18.54
2022-09-06T06:04:35.947Z,18.51
2022-09-06T06:07:03.642Z,18.45
2022-09-06T06:09:31.250Z,18.41
2022-09-06T06:12:00.151Z,18.75
2022-09-06T06:14:27.695Z,18.84
2022-09-06T06:16:55.273Z,18.88
2022-09-06T06:19:22.894Z,19.03
2022-09-06T06:21:50.467Z,19.13
2022-09-06T06:24:18.087Z,19.28
2022-09-06T06:26:45.793Z,19.38
2022-09-06T06:29:14.856Z,19.12
2022-09-06T06:31:42.524Z,19.66
2022-09-06T06:34:10.095Z,19.93
2022-09-06T06:36:38.222Z,20.33
2022-09-06T06:39:08.334Z,20.20
2022-09-06T06:41:35.926Z,20.64
2022-09-06T06:44:05.852Z,20.67
2022-09-06T06:46:36.733Z,20.74
2022-09-06T06:49:04.754Z,21.19
2022-09-06T06:51:33.787Z,20.81
2022-09-06T06:54:01.327Z,21.00
2022-09-06T06:56:31.027Z,21.13
2022-09-06T06:59:00.326Z,21.66
2022-09-06T07:01:30.170Z,21.72
2022-09-06T07:03:59.677Z,22.20
2022-09-06T07:09:16.736Z,22.22
2022-09-06T07:11:44.276Z,21.87
2022-09-06T07:14:12.023Z,21.74
2022-09-06T07:16:39.776Z,21.50
2022-09-06T07:21:59.325Z,21.07
2022-09-06T07:24:27.934Z,21.35
2022-09-06T07:29:43.081Z,21.72
2022-09-06T07:32:10.807Z,21.90
2022-09-06T07:34:39.950Z,21.79
2022-09-06T07:37:07.515Z,22.15
2022-09-06T07:39:36.922Z,22.29
2022-09-06T07:42:04.962Z,21.83
2022-09-06T07:44:32.555Z,21.42
2022-09-06T07:55:27.053Z,21.69
2022-09-06T07:57:54.602Z,22.04
2022-09-06T08:00:22.274Z,22.03
2022-09-06T08:02:49.863Z,22.06
2022-09-06T08:10:54.106Z,21.94
2022-09-06T08:13:21.686Z,21.92
2022-09-06T08:15:49.342Z,22.35
2022-09-06T08:18:16.884Z,22.28
2022-09-06T08:20:45.754Z,22.44
2022-09-06T08:23:13.708Z,22.78
2022-09-06T08:25:41.298Z,22.64
2022-09-06T08:28:08.856Z,22.25
2022-09-06T08:30:36.528Z,22.29
2022-09-06T08:33:04.079Z,22.50
2022-09-06T08:35:31.689Z,22.54
2022-09-06T08:38:00.614Z,22.69
2022-09-06T08:40:28.213Z,22.58
2022-09-06T08:42:55.848Z,22.57
2022-09-06T08:45:24.752Z,22.84
2022-09-06T08:47:52.559Z,23.28
2022-09-06T08:50:21.873Z,22.99
2022-09-06T08:53:16.167Z,23.14
2022-09-06T08:55:54.116Z,23.53
2022-09-06T08:58:38.194Z,23.57
2022-09-06T09:01:09.028Z,24.00
2022-09-06T09:03:45.181Z,24.38
2022-09-06T09:06:12.851Z,24.98
2022-09-06T09:08:47.870Z,24.91
2022-09-06T09:11:19.821Z,24.67
2022-09-06T09:13:55.828Z,24.88
2022-09-06T09:16:24.260Z,24.73
2022-09-06T09:18:53.354Z,25.11
2022-09-06T09:21:29.562Z,24.86
2022-09-06T09:23:59.797Z,25.05
2022-09-06T09:26:34.241Z,24.85
2022-09-06T09:29:08.124Z,25.12
2022-09-06T09:31:37.789Z,25.23
2022-09-06T09:34:05.622Z,25.18
2022-09-06T09:36:33.579Z,24.98
2022-09-06T09:39:01.349Z,25.12
2022-09-06T09:41:33.434Z,24.64
2022-09-06T09:44:05.109Z,24.61
2022-09-06T09:46:34.266Z,24.65
2022-09-06T09:49:05.189Z,24.45
2022-09-06T09:51:34.265Z,25.03
2022-09-06T09:54:03.720Z,24.75
2022-09-06T09:56:39.032Z,25.08
2022-09-06T09:59:17.562Z,25.44
2022-09-06T10:01:45.156Z,25.25
2022-09-06T10:07:14.241Z,25.44
2022-09-06T10:09:47.123Z,25.65
2022-09-06T10:12:19.893Z,25.94
2022-09-06T10:14:50.135Z,25.46
2022-09-06T10:17:23.240Z,25.37
2022-09-06T10:19:50.825Z,25.75
2022-09-06T10:22:27.128Z,26.16
2022-09-06T10:25:25.898Z,26.90
2022-09-06T10:28:11.881Z,27.55
2022-09-06T10:30:46.914Z,27.82
2022-09-06T10:33:27.086Z,28.23
2022-09-06T10:35:58.024Z,28.04
2022-09-06T10:38:38.536Z,27.36
2022-09-06T10:41:25.079Z,27.95
2022-09-06T10:44:01.939Z,27.64
2022-09-06T10:46:34.717Z,27.84
2022-09-06T10:49:02.399Z,28.64
2022-09-06T10:51:39.287Z,28.85
2022-09-06T10:54:10.972Z,29.00
2022-09-06T10:56:44.954Z,28.02
2022-09-06T10:59:38.079Z,27.68
2022-09-06T11:02:17.657Z,27.22
2022-09-06T11:07:41.229Z,27.00
2022-09-06T11:10:15.716Z,27.19
2022-09-06T11:12:48.679Z,27.55
2022-09-06T11:15:20.243Z,26.65
2022-09-06T11:17:52.878Z,27.16
2022-09-06T11:20:29.820Z,27.79
2022-09-06T11:23:31.394Z,27.48
2022-09-06T11:26:11.704Z,27.92
2022-09-06T11:28:44.825Z,27.79
2022-09-06T11:34:22.472Z,27.17
2022-09-06T11:36:52.730Z,27.78
2022-09-06T11:42:40.895Z,27.90
2022-09-06T11:45:21.548Z,27.78
2022-09-06T11:47:52.070Z,27.78
2022-09-06T11:50:27.984Z,28.83
2022-09-06T11:53:03.030Z,28.31
2022-09-06T11:55:38.707Z,28.51
2022-09-06T11:58:12.229Z,28.09
2022-09-06T12:00:39.991Z,28.25
2022-09-06T12:06:19.807Z,29.71
2022-09-06T12:08:48.208Z,28.36
2022-09-06T12:11:30.787Z,29.29
2022-09-06T12:14:03.145Z,28.95
2022-09-06T12:17:08.911Z,29.34
2022-09-06T12:19:44.979Z,29.19
2022-09-06T12:22:53.447Z,29.69
2022-09-06T12:25:52.843Z,29.38
2022-09-06T12:28:28.231Z,30.09
2022-09-06T12:30:56.146Z,30.46
2022-09-06T12:33:28.105Z,30.51
2022-09-06T12:36:13.842Z,29.47
2022-09-06T12:38:41.614Z,29.95
2022-09-06T12:41:09.388Z,30.65
2022-09-06T12:43:40.276Z,30.02
2022-09-06T12:46:08.620Z,30.69
2022-09-06T12:48:41.208Z,30.56
2022-09-06T12:51:16.030Z,32.55
2022-09-06T12:53:51.422Z,32.83
2022-09-06T12:56:21.639Z,33.31
2022-09-06T12:58:49.232Z,34.35
2022-09-06T13:01:23.646Z,33.85
2022-09-06T13:04:00.187Z,34.03
2022-09-06T13:06:31.665Z,34.88
2022-09-06T13:09:00.035Z,34.58
2022-09-06T13:11:31.468Z,35.82
2022-09-06T13:13:59.434Z,35.71
2022-09-06T13:16:30.866Z,35.49
2022-09-06T13:19:12.420Z,34.47
2022-09-06T13:21:42.822Z,33.56
2022-09-06T13:24:22.424Z,35.68
2022-09-06T13:26:50.751Z,36.00
2022-09-06T13:29:27.143Z,36.71
2022-09-06T13:31:59.266Z,37.58
2022-09-06T13:34:29.070Z,38.28
2022-09-06T13:37:09.605Z,37.96
2022-09-06T13:39:39.249Z,35.22
2022-09-06T13:42:08.634Z,34.53
2022-09-06T13:44:37.700Z,35.65
2022-09-06T13:47:05.800Z,36.75
2022-09-06T13:49:34.117Z,36.68
2022-09-06T13:52:04.910Z,36.84
2022-09-06T13:54:33.713Z,33.73
2022-09-06T13:57:01.866Z,34.79
2022-09-06T13:59:30.226Z,35.20
2022-09-06T14:02:02.573Z,35.38
2022-09-06T14:04:32.339Z,36.50
2022-09-06T14:07:00.446Z,36.42
2022-09-06T14:09:29.757Z,34.83
2022-09-06T14:11:57.510Z,33.03
2022-09-06T14:14:25.236Z,31.76
2022-09-06T14:16:53.950Z,31.81
2022-09-06T14:19:21.474Z,31.39
2022-09-06T14:21:48.838Z,30.49
2022-09-06T14:24:16.194Z,32.13
2022-09-06T14:26:44.971Z,33.39
2022-09-06T14:29:12.551Z,33.89
2022-09-06T14:31:40.067Z,32.28
2022-09-06T14:34:07.608Z,32.93
2022-09-06T14:36:35.069Z,34.18
2022-09-06T14:39:03.145Z,34.05
2022-09-06T14:41:31.111Z,32.66
2022-09-06T14:44:00.461Z,32.08
2022-09-06T14:46:29.901Z,31.24
2022-09-06T14:48:58.822Z,31.47
2022-09-06T14:51:26.658Z,33.02
2022-09-06T14:53:56.635Z,34.16
2022-09-06T14:56:25.919Z,34.77
2022-09-06T14:58:54.659Z,33.87
2022-09-06T15:01:25.526Z,33.64
2022-09-06T15:03:55.705Z,33.56
2022-09-06T15:06:25.307Z,34.28
2022-09-06T15:08:58.413Z,33.52
2022-09-06T15:11:32.225Z,32.90
2022-09-06T15:13:59.916Z,33.51
2022-09-06T15:16:29.860Z,33.41
2022-09-06T15:18:57.866Z,33.07
2022-09-06T15:21:25.774Z,32.67
2022-09-06T15:23:54.545Z,32.50
2022-09-06T15:26:22.820Z,31.76
2022-09-06T15:28:50.575Z,31.37
2022-09-06T15:31:19.434Z,30.93
2022-09-06T15:33:48.893Z,30.69
2022-09-06T15:36:17.298Z,30.48
2022-09-06T15:38:47.383Z,30.23
2022-09-06T15:41:17.484Z,29.78
2022-09-06T15:43:47.305Z,29.98
2022-09-06T15:46:15.598Z,30.37
2022-09-06T15:48:44.870Z,31.37
2022-09-06T15:51:16.070Z,31.87
2022-09-06T15:53:43.785Z,31.21
2022-09-06T15:56:13.590Z,31.06
2022-09-06T15:58:41.340Z,31.08
2022-09-06T16:01:10.235Z,30.97
2022-09-06T16:03:39.377Z,30.74
2022-09-06T16:08:58.356Z,29.87
2022-09-06T16:11:26.079Z,29.60
2022-09-06T16:13:54.121Z,29.28
2022-09-06T16:16:22.676Z,28.81
2022-09-06T16:18:52.069Z,28.79
2022-09-06T16:21:23.826Z,28.78
2022-09-06T16:23:54.872Z,28.55
2022-09-06T16:26:23.598Z,28.45
2022-09-06T16:28:52.899Z,28.32
2022-09-06T16:31:22.134Z,28.20
2022-09-06T16:33:50.305Z,28.25
2022-09-06T16:36:19.489Z,28.08
2022-09-06T16:38:48.003Z,27.84
2022-09-06T16:41:19.174Z,27.92
2022-09-06T16:43:47.854Z,27.70
2022-09-06T16:46:15.771Z,27.68
2022-09-06T16:48:43.335Z,27.59
2022-09-06T16:51:13.939Z,27.50
2022-09-06T16:53:43.451Z,27.40
2022-09-06T16:56:12.442Z,27.28
2022-09-06T16:58:41.793Z,27.22
2022-09-06T17:01:09.958Z,27.10
2022-09-06T17:03:38.389Z,27.04
2022-09-06T17:06:07.113Z,26.95
2022-09-06T17:08:36.271Z,26.85
2022-09-06T17:11:04.361Z,26.81
2022-09-06T17:13:33.060Z,26.68
2022-09-06T17:16:22.322Z,26.40
2022-09-06T17:18:52.542Z,26.50
2022-09-06T17:21:21.217Z,26.42
2022-09-06T17:23:49.463Z,26.32
2022-09-06T17:26:17.289Z,26.34
2022-09-06T17:28:44.829Z,26.25
2022-09-06T17:31:13.864Z,26.18
2022-09-06T17:33:41.654Z,26.13
2022-09-06T17:36:11.587Z,26.08
2022-09-06T17:38:39.576Z,25.94
2022-09-06T17:41:07.773Z,25.60
2022-09-06T17:43:36.564Z,25.95
2022-09-06T17:46:04.490Z,25.89
2022-09-06T17:48:33.484Z,25.86
2022-09-06T17:51:06.855Z,25.76
2022-09-06T17:53:34.481Z,25.69
2022-09-06T17:56:04.971Z,25.65
2022-09-06T17:58:32.956Z,25.40
2022-09-06T18:01:03.246Z,25.50
2022-09-06T18:03:31.866Z,25.49
2022-09-06T18:06:05.397Z,25.46
2022-09-06T18:08:32.986Z,25.39
2022-09-06T18:11:00.772Z,25.32
2022-09-06T18:13:28.369Z,25.27
2022-09-06T18:15:55.958Z,25.18
2022-09-06T18:18:23.557Z,25.16
2022-09-06T18:20:51.814Z,25.11
2022-09-06T18:23:20.659Z,25.08
2022-09-06T18:25:56.845Z,24.91
2022-09-06T18:28:25.241Z,24.96
2022-09-06T18:30:53.973Z,24.94
2022-09-06T18:33:23.667Z,24.88
2022-09-06T18:35:51.853Z,24.84
2022-09-06T18:38:20.663Z,24.83
2022-09-06T18:40:52.197Z,24.82
2022-09-06T18:43:20.215Z,24.77
2022-09-06T18:45:47.794Z,24.71
2022-09-06T18:48:15.843Z,24.68
2022-09-06T18:50:43.467Z,24.63
2022-09-06T18:53:11.515Z,24.56
2022-09-06T18:55:42.602Z,24.45
2022-09-06T18:58:10.810Z,24.30
2022-09-06T19:00:38.770Z,24.25
2022-09-06T19:03:06.817Z,24.23
2022-09-06T19:05:35.590Z,24.14
2022-09-06T19:08:03.785Z,24.09
2022-09-06T19:10:31.760Z,24.00
2022-09-06T19:13:00.682Z,23.97
2022-09-06T19:15:28.454Z,23.83
2022-09-06T19:17:56.958Z,23.79
2022-09-06T19:20:24.519Z,23.77
2022-09-06T19:22:52.238Z,23.74
2022-09-06T19:25:20.191Z,23.49
2022-09-06T19:27:48.934Z,23.51
2022-09-06T19:30:19.757Z,23.55
2022-09-06T19:32:47.600Z,23.46
2022-09-06T19:35:15.310Z,22.98
2022-09-06T19:37:43.095Z,23.30
2022-09-06T19:40:11.541Z,23.29
2022-09-06T19:42:39.373Z,23.26
2022-09-06T19:45:09.615Z,23.16
2022-09-06T19:47:38.619Z,23.09
2022-09-06T19:50:08.031Z,23.07
2022-09-06T19:52:35.652Z,23.02
2022-09-06T19:55:03.336Z,22.95
2022-09-06T19:57:30.966Z,22.97
2022-09-06T19:59:58.517Z,22.88
2022-09-06T20:02:26.271Z,22.82
2022-09-06T20:04:55.409Z,22.75
2022-09-06T20:07:22.938Z,22.76
2022-09-06T20:09:52.524Z,22.79
2022-09-06T20:12:20.607Z,22.79
2022-09-06T20:14:48.168Z,22.76
2022-09-06T20:17:33.223Z,22.73
2022-09-06T20:20:04.039Z,22.67
2022-09-06T20:22:31.974Z,22.73
2022-09-06T20:24:59.727Z,22.69
2022-09-06T20:27:27.428Z,22.65
2022-09-06T20:29:55.007Z,22.67
2022-09-06T20:32:22.606Z,22.42
2022-09-06T20:34:50.206Z,22.76
2022-09-06T20:37:19.276Z,22.42
2022-09-06T20:39:46.892Z,22.20
2022-09-06T20:42:14.472Z,21.85
2022-09-06T20:44:42.028Z,21.57
2022-09-06T20:47:09.932Z,21.32
2022-09-06T20:49:37.671Z,21.28
2022-09-06T20:52:05.370Z,21.05
2022-09-06T20:54:34.379Z,21.03
2022-09-06T20:57:01.989Z,21.00
2022-09-06T20:59:29.537Z,21.03
2022-09-06T21:01:57.103Z,20.96
2022-09-06T21:04:26.473Z,20.93
2022-09-06T21:06:54.782Z,20.89
2022-09-06T21:09:22.370Z,20.84
2022-09-06T21:11:52.598Z,20.80
2022-09-06T21:14:20.266Z,20.83
2022-09-06T21:16:47.932Z,20.74
2022-09-06T21:19:16.200Z,20.69
2022-09-06T21:21:44.557Z,20.66
2022-09-06T21:24:12.186Z,20.48
2022-09-06T21:26:40.849Z,20.26
2022-09-06T21:29:09.925Z,20.41
2022-09-06T21:31:38.333Z,20.30
2022-09-06T21:34:07.169Z,20.43
2022-09-06T21:36:39.045Z,20.46
2022-09-06T21:39:09.527Z,20.43
2022-09-06T21:41:38.544Z,20.39
2022-09-06T21:44:08.187Z,20.38
2022-09-06T21:46:38.758Z,20.40
2022-09-06T21:49:08.839Z,20.46
2022-09-06T21:51:37.119Z,20.40
2022-09-06T21:54:05.819Z,20.54
2022-09-06T21:56:35.790Z,20.52
2022-09-06T21:59:03.725Z,20.42
2022-09-06T22:01:33.985Z,20.50
2022-09-06T22:04:03.965Z,20.50
2022-09-06T22:06:33.330Z,20.11
2022-09-06T22:09:02.929Z,20.50
2022-09-06T22:11:32.955Z,20.46
2022-09-06T22:14:01.536Z,20.34
2022-09-06T22:16:31.087Z,20.30
2022-09-06T22:18:58.990Z,20.33
2022-09-06T22:21:28.020Z,20.29
2022-09-06T22:23:57.696Z,20.28
2022-09-06T22:26:26.430Z,20.15
2022-09-06T22:28:55.214Z,20.10
2022-09-06T22:31:23.581Z,19.59
2022-09-06T22:33:51.160Z,19.37
2022-09-06T22:36:18.790Z,19.03
2022-09-06T22:38:47.727Z,18.69
2022-09-06T22:41:15.203Z,18.42
2022-09-06T22:43:42.724Z,18.03
2022-09-06T22:46:11.124Z,17.83
2022-09-06T22:48:38.720Z,17.84
2022-09-06T22:51:07.093Z,17.70
2022-09-06T22:53:36.227Z,17.59
2022-09-06T22:56:05.210Z,17.55
2022-09-06T22:58:33.675Z,17.80
2022-09-06T23:01:06.344Z,17.95
2022-09-06T23:03:35.165Z,18.09
2022-09-06T23:06:02.864Z,18.19
2022-09-06T23:08:30.330Z,18.27
2022-09-06T23:10:57.745Z,18.36
2022-09-06T23:13:26.574Z,18.37
2022-09-06T23:15:54.090Z,18.39
2022-09-06T23:18:21.691Z,18.42
2022-09-06T23:20:49.082Z,18.38
2022-09-06T23:23:16.441Z,18.36
2022-09-06T23:25:44.050Z,18.38
2022-09-06T23:28:11.483Z,18.30
2022-09-06T23:30:40.330Z,17.86
2022-09-06T23:33:07.692Z,18.10
2022-09-06T23:35:35.120Z,18.18
2022-09-06T23:38:02.505Z,18.18
2022-09-06T23:40:29.909Z,18.21
2022-09-06T23:42:57.279Z,18.19
2022-09-06T23:45:24.669Z,18.22
2022-09-06T23:47:53.389Z,18.26
2022-09-06T23:50:20.900Z,18.27
2022-09-06T23:52:48.567Z,18.30
2022-09-06T23:55:16.104Z,18.27
2022-09-06T23:57:43.497Z,18.31
